Time;durP1;ratioP1;P1;durP2;ratioP2;P2;SDS_P1;SDS_P2;PMS_P1;PMS_P2;Temp;Humidity;BMP_temperature;BMP_pressure;BME280_temperature;BME280_humidity;BME280_pressure;Samples;Min_cycle;Max_cycle;Signal;HPM_P1;HPM_P2
2022/08/25 00:01:08;;;;;;;13.68;6.35;;;;;;;19.42;55.46;100484.66;5016633;28;20056;-77
2022/08/25 00:03:34;;;;;;;15.68;6.20;;;;;;;19.42;55.39;100479.25;5017308;28;20038;-78
2022/08/25 00:06:00;;;;;;;22.30;7.03;;;;;;;19.34;55.64;100484.56;5033493;28;20136;-78
2022/08/25 00:08:26;;;;;;;9.60;6.47;;;;;;;19.35;55.86;100478.16;5034476;28;20051;-78
2022/08/25 00:10:52;;;;;;;17.05;7.88;;;;;;;19.39;55.56;100477.69;5016592;28;20140;-79
2022/08/25 00:13:18;;;;;;;12.00;6.15;;;;;;;19.28;55.83;100477.03;5016312;28;20041;-78
2022/08/25 00:15:45;;;;;;;10.82;6.30;;;;;;;19.27;55.96;100486.19;5016529;28;20138;-77
2022/08/25 00:18:11;;;;;;;12.43;6.40;;;;;;;19.23;55.70;100484.78;5032920;28;20050;-78
2022/08/25 00:20:37;;;;;;;13.23;6.18;;;;;;;19.13;55.89;100474.81;5016269;28;20049;-76
2022/08/25 00:23:03;;;;;;;13.35;6.72;;;;;;;19.17;56.57;100487.06;5016507;28;20047;-77
2022/08/25 00:25:29;;;;;;;13.02;6.68;;;;;;;19.12;56.39;100481.25;5016316;28;20045;-77
2022/08/25 00:27:55;;;;;;;15.98;6.32;;;;;;;19.10;56.31;100487.81;5000005;28;20040;-77
2022/08/25 00:30:22;;;;;;;14.00;6.82;;;;;;;19.09;56.18;100484.25;5032408;28;20107;-77
2022/08/25 00:32:47;;;;;;;11.30;6.68;;;;;;;19.06;56.62;100481.84;5016426;28;20053;-78
2022/08/25 00:35:14;;;;;;;18.50;6.40;;;;;;;19.02;56.57;100483.16;5016046;28;20132;-77
2022/08/25 00:37:40;;;;;;;9.75;6.70;;;;;;;19.01;56.86;100484.16;5032178;28;20416;-77
2022/08/25 00:40:07;;;;;;;9.95;6.68;;;;;;;18.86;56.75;100472.09;5032554;28;20046;-76
2022/08/25 00:42:33;;;;;;;11.57;7.25;;;;;;;18.87;57.45;100484.66;5032397;28;20553;-77
2022/08/25 00:44:59;;;;;;;10.98;7.28;;;;;;;18.81;57.53;100485.25;4999531;28;20193;-77
2022/08/25 00:47:25;;;;;;;11.80;7.40;;;;;;;18.81;57.79;100483.41;5015907;28;20037;-79
2022/08/25 00:49:57;;;;;;;10.70;7.03;;;;;;;18.77;57.78;100490.13;5015702;28;20044;-78
2022/08/25 00:52:31;;;;;;;12.27;7.00;;;;;;;18.68;58.37;100478.25;5015653;28;20080;-78
2022/08/25 00:55:20;;;;;;;10.95;6.93;;;;;;;18.60;58.38;100488.97;5015798;28;20412;-77
2022/08/25 00:57:59;;;;;;;15.10;7.00;;;;;;;18.47;59.11;100477.63;5015772;28;20121;-77
2022/08/25 01:00:29;;;;;;;9.45;6.93;;;;;;;18.46;58.98;100486.72;4999268;28;20049;-78
2022/08/25 01:02:56;;;;;;;18.52;7.32;;;;;;;18.41;58.93;100483.59;4999365;28;20049;-77
2022/08/25 01:05:23;;;;;;;12.07;7.28;;;;;;;18.44;59.33;100488.72;5032041;28;20052;-77
2022/08/25 01:07:49;;;;;;;11.63;7.10;;;;;;;18.43;59.43;100487.88;5032485;28;20488;-78
2022/08/25 01:10:17;;;;;;;11.73;7.65;;;;;;;18.47;59.38;100492.97;5015525;28;20132;-77
2022/08/25 01:12:43;;;;;;;14.15;8.00;;;;;;;18.45;59.52;100490.44;5015482;28;20503;-78
2022/08/25 01:15:12;;;;;;;17.33;9.25;;;;;;;18.44;59.37;100489.59;5031818;28;20155;-78
2022/08/25 01:17:49;;;;;;;12.70;9.77;;;;;;;18.45;59.54;100495.84;5031554;28;20120;-77
2022/08/25 01:20:18;;;;;;;12.10;8.77;;;;;;;18.51;59.32;100492.56;5015134;28;20064;-78
2022/08/25 01:22:45;;;;;;;11.05;8.85;;;;;;;18.55;59.49;100485.84;5015327;28;20128;-77
2022/08/25 01:25:49;;;;;;;14.55;8.48;;;;;;;18.60;59.35;100494.38;5031985;28;20054;-79
2022/08/25 01:28:16;;;;;;;12.80;8.40;;;;;;;18.60;58.98;100494.38;5014247;28;20085;-76
2022/08/25 01:30:42;;;;;;;15.27;8.02;;;;;;;18.54;59.34;100478.75;5015108;28;20409;-78
2022/08/25 01:33:10;;;;;;;11.43;7.60;;;;;;;18.61;59.30;100496.09;5015227;28;20524;-78
2022/08/25 01:35:38;;;;;;;11.00;7.18;;;;;;;18.62;58.97;100497.81;5032727;28;20042;-78
2022/08/25 01:38:06;;;;;;;10.30;7.18;;;;;;;18.59;59.15;100502.66;5015072;28;20051;-77
2022/08/25 01:40:34;;;;;;;17.33;8.35;;;;;;;18.59;59.32;100503.53;5031419;28;20048;-77
2022/08/25 01:43:19;;;;;;;13.48;7.68;;;;;;;18.50;59.43;100481.88;5032201;28;20496;-77
2022/08/25 01:45:47;;;;;;;15.65;8.93;;;;;;;18.59;59.08;100508.94;5015068;28;20101;-77
2022/08/25 01:48:15;;;;;;;12.77;8.35;;;;;;;18.55;59.40;100504.81;5032067;28;20057;-76
2022/08/25 01:50:42;;;;;;;17.87;10.17;;;;;;;18.55;59.52;100507.53;5031528;28;20048;-76
2022/08/25 01:53:21;;;;;;;14.70;9.50;;;;;;;18.55;59.20;100504.81;4998388;28;20306;-78
2022/08/25 01:56:00;;;;;;;15.20;10.40;;;;;;;18.52;59.43;100510.53;5031718;28;20501;-77
2022/08/25 01:58:32;;;;;;;13.13;10.70;;;;;;;18.56;59.56;100502.97;5031659;28;20509;-76
2022/08/25 02:01:03;;;;;;;22.75;10.43;;;;;;;18.54;59.44;100505.81;4998559;28;20054;-78
2022/08/25 02:03:29;;;;;;;15.27;10.00;;;;;;;18.53;59.45;100514.06;5032633;28;20132;-78
2022/08/25 02:05:57;;;;;;;21.88;10.65;;;;;;;18.49;59.66;100513.50;5014576;28;20051;-78
2022/08/25 02:08:23;;;;;;;21.23;11.95;;;;;;;18.41;60.08;100511.53;5031002;28;20095;-76
2022/08/25 02:10:51;;;;;;;18.60;12.25;;;;;;;18.50;60.24;100512.50;5031170;28;20046;-75
2022/08/25 02:13:19;;;;;;;17.02;13.82;;;;;;;18.55;60.12;100518.34;5032351;28;20053;-78
2022/08/25 02:15:49;;;;;;;21.95;14.48;;;;;;;18.57;60.26;100510.06;5035142;28;20123;-76
2022/08/25 02:18:16;;;;;;;24.48;13.65;;;;;;;18.55;60.07;100518.34;5018842;28;20072;-76
2022/08/25 02:20:42;;;;;;;16.73;13.02;;;;;;;18.57;60.07;100516.34;5035214;28;20477;-77
2022/08/25 02:23:09;;;;;;;21.23;12.73;;;;;;;18.41;60.85;100505.25;5034926;28;20111;-77
2022/08/25 02:25:38;;;;;;;21.42;12.52;;;;;;;18.37;60.93;100498.44;5035095;28;20469;-79
2022/08/25 02:28:05;;;;;;;;;;;;;;;18.55;60.68;100525.63;5019001;28;20099;-76
2022/08/25 02:30:31;;;;;;;17.67;9.90;;;;;;;18.51;60.83;100522.34;5034935;28;19921;-77
2022/08/25 02:32:57;;;;;;;15.00;10.65;;;;;;;18.50;61.04;100519.78;5034561;28;20455;-77
2022/08/25 02:35:23;;;;;;;24.05;11.90;;;;;;;18.43;61.53;100514.09;5001931;28;20095;-76
2022/08/25 02:37:53;;;;;;;22.85;12.63;;;;;;;18.34;62.38;100526.63;5036380;28;20048;-76
2022/08/25 02:40:20;;;;;;;23.88;12.48;;;;;;;18.38;62.41;100521.78;5002051;28;20042;-78
2022/08/25 02:42:47;;;;;;;26.95;13.18;;;;;;;18.40;62.24;100525.22;5034565;28;20106;-77
2022/08/25 02:45:13;;;;;;;23.60;13.98;;;;;;;18.43;62.81;100519.53;5034472;28;20053;-77
2022/08/25 02:47:40;;;;;;;29.55;15.02;;;;;;;18.50;62.30;100517.91;5018197;28;20073;-76
2022/08/25 02:50:07;;;;;;;31.95;15.82;;;;;;;18.60;62.83;100520.63;5017839;28;20092;-77
2022/08/25 02:52:34;;;;;;;26.23;16.00;;;;;;;18.57;62.71;100527.16;5017486;28;20420;-77
2022/08/25 02:55:03;;;;;;;30.58;15.23;;;;;;;18.59;63.13;100525.19;5034251;28;20071;-78
2022/08/25 02:57:30;;;;;;;28.13;16.65;;;;;;;18.69;62.68;100523.31;5034092;28;20425;-78
2022/08/25 02:59:57;;;;;;;31.27;16.20;;;;;;;18.83;62.25;100521.16;5035451;28;20080;-77
2022/08/25 03:02:26;;;;;;;34.80;16.67;;;;;;;18.87;62.20;100530.69;5017702;28;20041;-77
2022/08/25 03:04:53;;;;;;;40.40;16.42;;;;;;;18.99;62.23;100515.97;5001563;28;20136;-78
2022/08/25 03:07:20;;;;;;;37.45;15.55;;;;;;;19.03;61.72;100517.41;5033836;28;20056;-78
2022/08/25 03:09:47;;;;;;;28.20;13.70;;;;;;;19.16;61.45;100512.47;5017739;28;20041;-78
2022/08/25 03:12:13;;;;;;;25.48;14.30;;;;;;;19.25;61.09;100523.41;5035278;28;20050;-79
2022/08/25 03:14:40;;;;;;;28.38;13.80;;;;;;;19.30;61.19;100521.13;5017415;28;20116;-78
2022/08/25 03:17:07;;;;;;;31.75;13.13;;;;;;;19.34;61.52;100536.09;5033673;28;20048;-79
2022/08/25 03:19:33;;;;;;;28.17;14.38;;;;;;;19.41;61.30;100532.63;5034136;28;20072;-84
2022/08/25 03:22:02;;;;;;;43.75;13.98;;;;;;;19.35;61.32;100532.38;5033955;28;20049;-76
2022/08/25 03:24:28;;;;;;;28.25;13.20;;;;;;;19.46;61.18;100529.47;5035284;28;20412;-82
2022/08/25 03:26:57;;;;;;;30.55;14.10;;;;;;;19.54;61.09;100531.41;5000747;28;20041;-77
2022/08/25 03:29:30;;;;;;;36.78;13.45;;;;;;;19.55;60.92;100517.69;5034037;28;20095;-78
2022/08/25 03:31:57;;;;;;;37.63;13.63;;;;;;;19.71;60.58;100524.31;5035668;28;20049;-77
2022/08/25 03:34:26;;;;;;;33.47;12.55;;;;;;;19.86;60.14;100536.38;5018536;28;20042;-76
2022/08/25 03:36:53;;;;;;;;;;;;;;;19.95;59.64;100532.75;5045938;28;20102;-77
2022/08/25 03:39:22;;;;;;;24.23;11.18;;;;;;;19.99;59.82;100522.44;5053307;28;20007;-78
2022/08/25 03:41:49;;;;;;;24.60;9.98;;;;;;;20.12;59.19;100526.47;5053395;28;20041;-77
2022/08/25 03:44:16;;;;;;;17.08;9.43;;;;;;;20.14;58.83;100513.56;5019867;28;20048;-75
2022/08/25 03:46:44;;;;;;;20.70;9.32;;;;;;;20.15;58.88;100519.84;5053406;28;20530;-80
2022/08/25 03:49:14;;;;;;;22.77;8.50;;;;;;;20.37;58.13;100510.38;5036620;28;20136;-77
2022/08/25 03:51:45;;;;;;;21.90;10.13;;;;;;;20.52;57.83;100511.53;5052939;28;20496;-77
2022/08/25 03:54:13;;;;;;;19.52;7.85;;;;;;;20.64;57.42;100520.28;5052517;28;20492;-78
2022/08/25 03:56:39;;;;;;;16.65;8.65;;;;;;;20.66;56.84;100518.28;5019911;28;20055;-79
2022/08/25 03:59:08;;;;;;;14.38;7.93;;;;;;;20.70;57.21;100513.38;5033161;28;20041;-78
2022/08/25 04:01:38;;;;;;;18.35;8.18;;;;;;;20.79;57.02;100517.84;5036359;28;20036;-77
2022/08/25 04:04:05;;;;;;;25.33;9.20;;;;;;;20.89;56.30;100513.16;5036544;28;20045;-76
2022/08/25 04:06:31;;;;;;;22.75;8.75;;;;;;;20.92;56.53;100518.28;5053773;28;20084;-77
2022/08/25 04:08:57;;;;;;;20.92;9.20;;;;;;;21.05;56.13;100505.06;5053526;28;20070;-77
2022/08/25 04:11:24;;;;;;;21.75;9.25;;;;;;;21.23;55.79;100509.59;5053805;28;20048;-77
2022/08/25 04:13:52;;;;;;;20.13;9.32;;;;;;;21.32;55.69;100497.72;5050225;28;20496;-77
2022/08/25 04:16:24;;;;;;;23.50;8.18;;;;;;;21.52;54.56;100515.50;5050332;28;20049;-76
2022/08/25 04:18:53;;;;;;;27.52;8.30;;;;;;;21.53;54.84;100500.88;5050194;28;20056;-77
2022/08/25 04:21:21;;;;;;;19.85;8.35;;;;;;;21.69;54.47;100510.09;5051142;28;20037;-78
2022/08/25 04:23:47;;;;;;;21.58;7.68;;;;;;;21.78;54.06;100509.97;5050161;28;20049;-76
2022/08/25 04:26:19;;;;;;;22.55;7.40;;;;;;;21.81;53.79;100509.66;5017790;28;20048;-76
2022/08/25 04:28:46;;;;;;;17.38;8.02;;;;;;;21.96;53.50;100512.53;5052220;28;20041;-77
2022/08/25 04:31:14;;;;;;;20.40;7.80;;;;;;;22.02;53.39;100509.16;5052230;28;20559;-77
2022/08/25 04:33:40;;;;;;;18.67;8.57;;;;;;;22.16;53.09;100510.41;5053548;28;20399;-78
2022/08/25 04:36:10;;;;;;;16.98;8.85;;;;;;;22.32;52.01;100508.69;5051375;28;20576;-77
2022/08/25 04:38:37;;;;;;;27.25;9.68;;;;;;;22.39;52.44;100512.44;5036030;28;20404;-77
2022/08/25 04:41:05;;;;;;;21.48;9.25;;;;;;;22.59;51.38;100508.31;5019207;28;20045;-78
2022/08/25 04:43:33;;;;;;;27.60;9.25;;;;;;;22.76;51.34;100501.00;5053270;28;20047;-78
2022/08/25 04:46:03;;;;;;;23.02;9.57;;;;;;;22.93;51.06;100505.38;5035355;28;20052;-77
2022/08/25 04:48:30;;;;;;;29.05;10.43;;;;;;;23.12;50.86;100498.69;5053084;28;20567;-77
2022/08/25 04:50:55;;;;;;;27.55;11.65;;;;;;;23.34;50.01;100507.13;5051886;28;20041;-76
2022/08/25 04:53:22;;;;;;;27.95;10.32;;;;;;;23.40;49.76;100500.97;5034632;28;20134;-77
2022/08/25 04:55:48;;;;;;;19.05;10.02;;;;;;;23.42;48.97;100507.94;5052032;28;20053;-78
2022/08/25 04:58:15;;;;;;;24.27;10.05;;;;;;;23.61;49.18;100508.53;5035537;28;20049;-77
2022/08/25 05:00:42;;;;;;;16.95;8.95;;;;;;;23.51;48.06;100503.31;5051644;28;20040;-78
2022/08/25 05:03:08;;;;;;;22.50;8.65;;;;;;;23.65;48.36;100501.69;5035048;28;20055;-78
2022/08/25 05:05:37;;;;;;;18.02;9.05;;;;;;;23.81;47.70;100501.63;5052526;28;20142;-78
2022/08/25 05:08:04;;;;;;;28.05;8.95;;;;;;;23.74;47.39;100495.19;5051692;28;20419;-78
2022/08/25 05:10:31;;;;;;;24.98;8.73;;;;;;;23.72;48.17;100494.50;5035111;28;20036;-78
2022/08/25 05:12:58;;;;;;;28.00;9.43;;;;;;;23.95;47.98;100500.81;5018575;28;20048;-77
2022/08/25 05:18:09;;;;;;;23.52;8.48;;;;;;;24.42;46.31;100491.63;5053033;28;20098;-77
2022/08/25 05:20:36;;;;;;;13.00;8.00;;;;;;;24.60;46.13;100487.72;5018940;28;20408;-77
2022/08/25 05:23:03;;;;;;;21.73;8.07;;;;;;;24.91;45.24;100503.94;5034969;28;20495;-77
2022/08/25 05:25:32;;;;;;;18.42;7.65;;;;;;;25.02;44.93;100497.16;5051518;28;20080;-77
2022/08/25 05:27:58;;;;;;;14.82;8.40;;;;;;;25.14;44.62;100501.16;5035058;28;20137;-78
2022/08/25 05:30:24;;;;;;;26.13;8.90;;;;;;;25.27;44.51;100495.84;5051440;28;20055;-77
2022/08/25 05:32:50;;;;;;;20.40;7.65;;;;;;;25.42;43.32;100493.09;5034882;28;20044;-78
2022/08/25 05:35:16;;;;;;;27.73;8.50;;;;;;;25.29;43.11;100487.47;5051492;28;20052;-78
2022/08/25 05:37:42;;;;;;;19.17;7.50;;;;;;;25.34;42.98;100496.78;5051675;28;20072;-77
2022/08/25 05:40:09;;;;;;;21.60;7.45;;;;;;;25.34;43.08;100488.56;5034592;28;20048;-78
2022/08/25 05:42:36;;;;;;;26.38;7.68;;;;;;;25.31;42.61;100488.97;5050690;28;20053;-78
2022/08/25 05:45:04;;;;;;;17.92;6.88;;;;;;;25.33;42.79;100486.03;5034795;28;20071;-77
2022/08/25 05:47:30;;;;;;;21.15;7.45;;;;;;;25.55;42.30;100498.75;5052851;28;20131;-76
2022/08/25 05:49:56;;;;;;;18.50;7.32;;;;;;;25.61;42.27;100488.88;5022428;28;20052;-77
2022/08/25 05:52:23;;;;;;;29.60;7.97;;;;;;;25.72;42.27;100495.75;5056573;28;20134;-78
2022/08/25 05:54:49;;;;;;;25.65;8.32;;;;;;;25.77;41.55;100488.69;5038422;28;20056;-79
2022/08/25 05:57:15;;;;;;;14.23;6.97;;;;;;;25.78;41.46;100487.66;5055041;28;20049;-78
2022/08/25 05:59:41;;;;;;;20.98;6.75;;;;;;;25.91;40.98;100487.81;5055695;28;20045;-78
2022/08/25 06:05:05;;;;;;;12.80;6.78;;;;;;;26.00;41.42;100490.41;5026973;28;20045;-77
2022/08/25 06:07:31;;;;;;;15.05;6.80;;;;;;;26.11;41.28;100481.69;5056196;28;20093;-80
2022/08/25 06:09:57;;;;;;;19.80;6.90;;;;;;;26.18;41.11;100482.59;5022162;28;20049;-78
2022/08/25 06:12:23;;;;;;;17.85;7.40;;;;;;;26.30;40.98;100482.91;5022338;28;20131;-77
2022/08/25 06:14:50;;;;;;;31.88;8.25;;;;;;;26.56;40.88;100485.03;5054874;28;20131;-78
2022/08/25 06:17:16;;;;;;;18.92;6.70;;;;;;;26.81;40.89;100478.03;5038315;28;20507;-78
2022/08/25 06:19:43;;;;;;;23.10;7.32;;;;;;;27.24;40.27;100482.53;5021681;28;20094;-77
2022/08/25 06:22:09;;;;;;;26.27;7.68;;;;;;;27.48;39.77;100483.91;5056041;28;20087;-78
2022/08/25 06:24:35;;;;;;;26.70;7.90;;;;;;;27.57;38.94;100471.69;5054980;28;20056;-78
2022/08/25 06:27:01;;;;;;;26.60;7.53;;;;;;;27.87;38.66;100474.09;5038514;28;20044;-77
2022/08/25 06:29:27;;;;;;;31.83;7.88;;;;;;;27.90;38.30;100471.78;5054704;28;20515;-77
2022/08/25 06:31:52;;;;;;;17.30;7.53;;;;;;;27.81;37.98;100473.91;5038065;28;20037;-77
2022/08/25 06:34:18;;;;;;;18.42;6.75;;;;;;;27.81;37.62;100470.31;5038047;28;20159;-78
2022/08/25 06:36:44;;;;;;;29.73;7.22;;;;;;;27.92;38.17;100468.84;5037857;28;20080;-79
2022/08/25 06:39:10;;;;;;;16.33;6.60;;;;;;;28.12;37.29;100475.22;5021663;28;20044;-79
2022/08/25 06:41:36;;;;;;;17.90;6.75;;;;;;;28.26;37.08;100476.06;5055632;28;20036;-80
2022/08/25 06:44:03;;;;;;;17.38;6.25;;;;;;;28.30;36.55;100466.34;5038014;28;20064;-78
2022/08/25 06:46:29;;;;;;;20.55;6.18;;;;;;;28.54;36.46;100467.63;5038296;28;20045;-77
2022/08/25 06:48:56;;;;;;;29.58;6.70;;;;;;;28.46;35.73;100465.09;5054663;28;20037;-78
2022/08/25 06:51:25;;;;;;;20.95;6.82;;;;;;;28.43;36.48;100458.09;5038259;28;20381;-78
2022/08/25 06:53:51;;;;;;;30.10;7.03;;;;;;;28.51;36.41;100463.41;5054792;28;20053;-77
2022/08/25 06:56:20;;;;;;;32.15;7.07;;;;;;;28.39;36.76;100447.75;5038279;28;20114;-78
2022/08/25 06:58:47;;;;;;;20.73;6.53;;;;;;;28.29;36.31;100456.41;5036826;28;20051;-80
2022/08/25 07:01:16;;;;;;;16.23;6.13;;;;;;;28.40;36.22;100457.69;5037464;28;20102;-77
2022/08/25 07:03:43;;;;;;;16.88;6.63;;;;;;;28.51;36.31;100452.41;5054157;28;20492;-77
2022/08/25 07:06:09;;;;;;;16.20;6.32;;;;;;;28.79;36.00;100460.41;5037485;28;20459;-77
2022/08/25 07:08:36;;;;;;;21.27;6.65;;;;;;;29.09;35.88;100454.44;5054660;28;20045;-78
2022/08/25 07:11:06;;;;;;;17.58;6.55;;;;;;;29.50;35.72;100447.69;5021071;28;20064;-78
2022/08/25 07:13:33;;;;;;;22.27;6.55;;;;;;;29.91;35.14;100432.63;5037851;28;20041;-77
2022/08/25 07:16:00;;;;;;;24.88;6.68;;;;;;;30.10;33.59;100439.06;5038310;28;20061;-78
2022/08/25 07:18:26;;;;;;;27.98;6.82;;;;;;;29.71;34.00;100438.25;5056949;28;20431;-78
2022/08/25 07:20:52;;;;;;;30.35;6.65;;;;;;;29.62;34.81;100432.16;5037798;28;20056;-77
2022/08/25 07:23:19;;;;;;;22.55;6.45;;;;;;;29.65;34.23;100431.75;5037053;28;20045;-77
2022/08/25 07:25:46;;;;;;;22.10;6.80;;;;;;;29.72;34.30;100423.44;5054557;28;20056;-78
2022/08/25 07:28:13;;;;;;;23.98;7.07;;;;;;;30.01;34.19;100424.69;5053617;28;20040;-77
2022/08/25 07:30:40;;;;;;;23.50;7.07;;;;;;;30.37;33.65;100417.66;5020517;28;20044;-78
2022/08/25 07:33:05;;;;;;;13.98;6.28;;;;;;;30.35;31.77;100414.25;5053886;28;20037;-77
2022/08/25 07:35:31;;;;;;;15.43;5.88;;;;;;;29.87;32.58;100420.38;5055110;28;20037;-78
2022/08/25 07:37:58;;;;;;;13.20;5.95;;;;;;;29.83;32.73;100419.13;5053474;28;20570;-78
2022/08/25 07:40:27;;;;;;;13.10;5.68;;;;;;;30.05;32.46;100414.06;5053466;28;20408;-77
2022/08/25 07:42:55;;;;;;;15.48;6.22;;;;;;;30.12;31.89;100414.84;5037019;28;20048;-78
2022/08/25 07:45:29;;;;;;;;;;;;;;;30.08;32.63;100422.72;5020592;28;20048;-78
2022/08/25 07:48:07;;;;;;;17.25;5.93;;;;;;;30.47;32.09;100415.22;5053134;28;20442;-78
2022/08/25 07:50:34;;;;;;;16.85;5.80;;;;;;;30.67;31.36;100413.09;5054433;28;20045;-77
2022/08/25 07:53:01;;;;;;;13.15;5.18;;;;;;;30.25;31.59;100403.75;5020044;28;20522;-77
2022/08/25 07:55:29;;;;;;;17.40;5.50;;;;;;;30.45;31.73;100404.41;5054627;28;20061;-78
2022/08/25 07:57:55;;;;;;;;;;;;;;;30.78;31.22;100403.25;5036601;28;20044;-78
2022/08/25 08:00:22;;;;;;;16.30;5.25;;;;;;;30.64;30.89;100396.16;5036428;28;19917;-78
2022/08/25 08:02:48;;;;;;;16.30;5.65;;;;;;;30.65;31.54;100393.13;5036588;28;20053;-78
2022/08/25 08:05:14;;;;;;;15.43;5.00;;;;;;;30.80;31.32;100397.47;5019998;28;20040;-78
2022/08/25 08:07:40;;;;;;;16.38;4.65;;;;;;;30.96;30.54;100396.88;5036326;28;20048;-78
2022/08/25 08:10:09;;;;;;;10.23;4.63;;;;;;;31.11;30.42;100397.31;5019896;28;20136;-77
2022/08/25 08:12:36;;;;;;;11.93;5.25;;;;;;;31.04;29.94;100391.03;5052927;28;20056;-78
2022/08/25 08:15:03;;;;;;;10.60;5.15;;;;;;;30.95;29.91;100375.84;5053944;28;20135;-79
2022/08/25 08:17:30;;;;;;;14.48;5.20;;;;;;;30.85;30.44;100387.44;5052651;28;20037;-78
2022/08/25 08:19:57;;;;;;;12.80;5.10;;;;;;;31.11;30.49;100390.97;5053786;28;20102;-77
2022/08/25 08:22:24;;;;;;;9.90;5.75;;;;;;;31.24;30.28;100387.16;5054109;28;20041;-79
2022/08/25 08:24:49;;;;;;;16.00;4.97;;;;;;;31.38;30.61;100384.03;5053233;28;20041;-78
2022/08/25 08:27:15;;;;;;;13.95;5.75;;;;;;;31.75;30.03;100383.91;5052656;28;20476;-78
2022/08/25 08:29:42;;;;;;;19.13;5.95;;;;;;;32.03;29.26;100365.81;5053334;28;20043;-77
2022/08/25 08:32:12;;;;;;;21.67;5.53;;;;;;;32.06;29.16;100363.44;5054498;28;20053;-78
2022/08/25 08:34:42;;;;;;;14.30;5.43;;;;;;;32.29;28.58;100370.06;5053321;28;20041;-78
2022/08/25 08:37:08;;;;;;;14.65;5.07;;;;;;;32.06;28.34;100360.66;5052460;28;20049;-77
2022/08/25 08:39:36;;;;;;;12.23;4.60;;;;;;;32.33;28.91;100371.25;5053833;28;20053;-77
2022/08/25 08:42:21;;;;;;;11.18;5.07;;;;;;;32.69;27.82;100358.25;5036136;28;20067;-78
2022/08/25 08:45:13;;;;;;;20.58;5.55;;;;;;;32.51;28.00;100345.41;5037595;28;20059;-78
2022/08/25 08:48:00;;;;;;;19.17;5.05;;;;;;;32.31;28.06;100365.09;5035616;28;20503;-78
2022/08/25 08:50:32;;;;;;;6.68;4.53;;;;;;;32.43;27.68;100360.47;5052135;28;20479;-79
2022/08/25 08:53:13;;;;;;;11.20;4.95;;;;;;;32.44;27.86;100353.84;5051825;28;20048;-78
2022/08/25 08:55:43;;;;;;;9.73;4.40;;;;;;;31.96;28.42;100360.41;5035293;28;20534;-79
2022/08/25 08:58:16;;;;;;;11.13;4.20;;;;;;;32.07;28.37;100351.28;5053209;28;20043;-78
2022/08/25 09:00:51;;;;;;;10.10;4.28;;;;;;;32.36;27.86;100343.94;5035763;28;20048;-78
2022/08/25 09:03:39;;;;;;;17.38;4.20;;;;;;;32.52;27.49;100342.38;5018916;28;20059;-78
2022/08/25 09:06:24;;;;;;;10.25;4.60;;;;;;;32.48;27.41;100341.19;5035218;28;20080;-78
2022/08/25 09:08:54;;;;;;;11.57;4.03;;;;;;;32.53;27.27;100333.00;5051951;28;20044;-78
2022/08/25 09:11:50;;;;;;;16.55;4.70;;;;;;;32.22;27.31;100330.59;5052309;28;20127;-78
2022/08/25 09:14:35;;;;;;;19.38;4.80;;;;;;;32.02;27.72;100323.50;5034981;28;20052;-77
2022/08/25 09:17:34;;;;;;;18.52;4.43;;;;;;;32.32;27.68;100333.59;5051782;28;20037;-77
2022/08/25 09:20:13;;;;;;;16.60;5.10;;;;;;;33.03;27.21;100332.44;5034887;28;20072;-76
2022/08/25 09:22:51;;;;;;;15.48;4.68;;;;;;;33.33;25.78;100323.03;5050911;28;20110;-77
2022/08/25 09:25:29;;;;;;;9.18;4.18;;;;;;;33.49;25.76;100325.00;5034920;28;20072;-78
2022/08/25 09:28:18;;;;;;;12.93;4.50;;;;;;;33.90;26.16;100322.94;5051248;28;20110;-78
2022/08/25 09:30:53;;;;;;;24.35;4.93;;;;;;;34.35;25.55;100313.66;5051852;28;20404;-77
2022/08/25 09:33:23;;;;;;;16.25;5.00;;;;;;;34.71;24.68;100311.38;5034836;28;20097;-78
2022/08/25 09:35:50;;;;;;;17.92;5.22;;;;;;;34.96;24.56;100316.41;5051500;28;20060;-78
2022/08/25 09:38:18;;;;;;;10.80;4.38;;;;;;;35.13;24.14;100314.41;5051411;28;20095;-78
2022/08/25 09:40:47;;;;;;;13.10;4.53;;;;;;;35.05;23.52;100314.84;5035161;28;20053;-78
2022/08/25 09:43:30;;;;;;;16.42;4.70;;;;;;;34.88;24.05;100312.13;5034606;28;20033;-77
2022/08/25 09:46:07;;;;;;;7.75;4.40;;;;;;;35.01;24.09;100285.91;5051380;28;20053;-78
2022/08/25 09:48:44;;;;;;;9.20;4.60;;;;;;;35.56;23.85;100301.50;5035308;28;20049;-77
2022/08/25 09:51:28;;;;;;;14.02;4.70;;;;;;;35.89;23.35;100305.94;5035095;28;20044;-77
2022/08/25 09:54:04;;;;;;;17.02;5.78;;;;;;;35.74;23.05;100300.28;5034660;28;20048;-77
2022/08/25 09:56:33;;;;;;;16.50;4.70;;;;;;;35.82;23.30;100285.88;5034636;28;20041;-77
2022/08/25 09:59:20;;;;;;;;;;;;;;;35.98;22.97;100296.03;5051596;28;20083;-77
2022/08/25 10:01:50;;;;;;;14.80;4.75;;;;;;;35.31;23.34;100296.50;5038960;28;19917;-77
2022/08/25 10:04:26;;;;;;;21.27;4.75;;;;;;;34.78;23.77;100290.63;5066841;28;20056;-78
2022/08/25 10:06:52;;;;;;;17.58;4.68;;;;;;;35.17;23.96;100290.56;5021017;28;20412;-78
2022/08/25 10:09:31;;;;;;;18.65;4.45;;;;;;;35.62;23.61;100294.91;5051480;28;20045;-78
2022/08/25 10:12:00;;;;;;;13.55;4.50;;;;;;;36.27;22.93;100298.44;5018423;28;20037;-78
2022/08/25 10:14:34;;;;;;;15.35;4.30;;;;;;;36.21;22.03;100293.94;5051100;28;20536;-77
2022/08/25 10:17:12;;;;;;;12.68;4.70;;;;;;;35.32;23.27;100298.19;5018184;28;20048;-77
2022/08/25 10:19:38;;;;;;;10.43;4.07;;;;;;;35.12;23.02;100297.97;5050923;28;20045;-77
2022/08/25 10:22:08;;;;;;;10.10;4.03;;;;;;;35.34;22.97;100293.19;5050852;28;20051;-77
2022/08/25 10:24:36;;;;;;;9.13;4.80;;;;;;;36.08;22.84;100283.28;5051046;28;20048;-81
2022/08/25 10:27:11;;;;;;;;;;;;;;;36.72;22.46;100294.22;5034944;28;20045;-77
2022/08/25 10:29:58;;;;;;;11.63;4.40;;;;;;;36.87;21.33;100297.06;5050939;28;19916;-78
2022/08/25 10:32:27;;;;;;;11.25;4.75;;;;;;;36.64;21.76;100286.41;5050728;28;20050;-78
2022/08/25 10:34:57;;;;;;;16.77;4.28;;;;;;;36.70;21.76;100279.72;5036687;28;20040;-77
2022/08/25 10:38:07;;;;;;;10.57;4.13;;;;;;;36.57;21.93;100271.88;5054506;28;20041;-77
2022/08/25 10:40:46;;;;;;;8.20;4.20;;;;;;;37.30;21.92;100267.06;5012040;28;20545;-78
2022/08/25 10:43:48;;;;;;;9.50;4.00;;;;;;;37.87;21.27;100248.38;5021543;28;20085;-77
2022/08/25 10:46:51;;;;;;;11.05;4.30;;;;;;;37.25;21.44;100260.66;5054581;28;20045;-77
2022/08/25 10:49:41;;;;;;;15.00;4.35;;;;;;;37.24;21.04;100248.69;5055880;28;20052;-77
2022/08/25 10:52:16;;;;;;;14.48;4.43;;;;;;;37.23;21.25;100254.50;5055428;28;20039;-76
2022/08/25 10:54:52;;;;;;;16.85;4.22;;;;;;;36.83;21.72;100259.72;5037681;28;20095;-76
2022/08/25 10:57:22;;;;;;;8.65;3.85;;;;;;;36.63;21.27;100251.28;5054033;28;20052;-76
2022/08/25 11:00:11;;;;;;;13.75;4.28;;;;;;;36.99;21.13;100246.69;5054528;28;20049;-76
2022/08/25 11:03:05;;;;;;;9.25;4.05;;;;;;;37.54;21.18;100247.03;5021067;28;20519;-77
2022/08/25 11:06:00;;;;;;;8.25;3.92;;;;;;;38.11;20.70;100245.88;5037574;28;20163;-77
2022/08/25 11:08:35;;;;;;;5.80;3.80;;;;;;;38.01;20.52;100243.09;5016126;28;20048;-78
2022/08/25 11:11:20;;;;;;;9.48;3.83;;;;;;;38.35;20.26;100246.91;5037217;28;20388;-78
2022/08/25 11:13:58;;;;;;;9.70;3.70;;;;;;;38.56;19.88;100249.63;5054927;28;20124;-77
2022/08/25 11:16:44;;;;;;;8.93;3.83;;;;;;;38.73;19.83;100238.91;5037042;28;20048;-76
2022/08/25 11:19:19;;;;;;;4.00;3.60;;;;;;;39.00;19.73;100243.25;5037109;28;20041;-78
2022/08/25 11:22:11;;;;;;;10.05;3.80;;;;;;;38.94;19.90;100227.66;5054855;28;20095;-77
2022/08/25 11:24:40;;;;;;;13.80;3.72;;;;;;;38.89;19.44;100236.06;5054570;28;20141;-76
2022/08/25 11:27:29;;;;;;;12.60;3.80;;;;;;;38.55;19.90;100237.59;5037565;28;20458;-77
2022/08/25 11:30:05;;;;;;;15.98;3.90;;;;;;;38.47;20.01;100227.03;5053660;28;20488;-76
2022/08/25 11:32:34;;;;;;;12.38;3.65;;;;;;;38.42;20.02;100220.66;5053335;28;20099;-76
2022/08/25 11:35:08;;;;;;;18.70;3.83;;;;;;;38.61;19.57;100224.47;5053621;28;20040;-76
2022/08/25 11:37:44;;;;;;;6.60;3.60;;;;;;;38.99;19.38;100225.66;5054903;28;20044;-76